Terminal Aerodrome Forecast
Issued by NWS

Home | Current Version | Previous Version | Text Only | Print | Product List | Glossary On
Versions: 1 2 3 4 5 6 7 8 9 10 11 12 13 14 15 16
000
FTUS42 KTBW 121300 AAA
TAFLAL
TAF AMD
KLAL 121329Z 1213/1312 13006KT P6SM SCT015 SCT250
      TEMPO 1213/1215 BKN015
     FM121500 13006KT P6SM SCT030 SCT250
     FM121700 11005KT P6SM VCTS SCT035CB SCT100 BKN250
     FM122000 09007KT P6SM VCTS SCT040CB BKN100
     FM130000 08004KT P6SM SCT040 BKN130
     FM130400 VRB03KT P6SM SCT250=

USA.gov is the U.S. government's official web portal to all federal, state and local government web resources and services.